sensor_id;sensor_type;location;lat;lon;timestamp;pressure;altitude;pressure_sealevel;temperature;humidity
61478;BME280;47345;52.334;10.392;2023-05-24T00:01:26;101437.50;;;7.74;82.05
61478;BME280;47345;52.334;10.392;2023-05-24T00:03:57;101434.67;;;7.71;82.23
61478;BME280;47345;52.334;10.392;2023-05-24T00:06:29;101432.05;;;7.69;82.24
61478;BME280;47345;52.334;10.392;2023-05-24T00:09:03;101427.70;;;7.65;82.38
61478;BME280;47345;52.334;10.392;2023-05-24T00:11:34;101429.36;;;7.63;82.59
61478;BME280;47345;52.334;10.392;2023-05-24T00:14:05;101427.53;;;7.62;82.66
61478;BME280;47345;52.334;10.392;2023-05-24T00:16:36;101427.77;;;7.63;82.84
61478;BME280;47345;52.334;10.392;2023-05-24T00:19:07;101425.79;;;7.65;82.97
61478;BME280;47345;52.334;10.392;2023-05-24T00:21:40;101429.30;;;7.67;83.03
61478;BME280;47345;52.334;10.392;2023-05-24T00:24:11;101422.55;;;7.67;83.08
61478;BME280;47345;52.334;10.392;2023-05-24T00:26:41;101424.84;;;7.70;83.07
61478;BME280;47345;52.334;10.392;2023-05-24T00:29:12;101422.25;;;7.68;82.95
61478;BME280;47345;52.334;10.392;2023-05-24T00:31:44;101421.73;;;7.68;83.25
61478;BME280;47345;52.334;10.392;2023-05-24T00:34:15;101415.03;;;7.68;83.40
61478;BME280;47345;52.334;10.392;2023-05-24T00:36:45;101412.48;;;7.68;83.39
61478;BME280;47345;52.334;10.392;2023-05-24T00:39:16;101408.02;;;7.67;83.51
61478;BME280;47345;52.334;10.392;2023-05-24T00:41:47;101410.10;;;7.67;83.58
61478;BME280;47345;52.334;10.392;2023-05-24T00:44:18;101406.63;;;7.67;83.76
61478;BME280;47345;52.334;10.392;2023-05-24T00:46:49;101401.09;;;7.63;83.64
61478;BME280;47345;52.334;10.392;2023-05-24T00:49:21;101403.92;;;7.63;83.62
61478;BME280;47345;52.334;10.392;2023-05-24T00:51:53;101400.63;;;7.62;83.78
61478;BME280;47345;52.334;10.392;2023-05-24T00:54:25;101400.30;;;7.62;83.77
61478;BME280;47345;52.334;10.392;2023-05-24T00:56:56;101401.89;;;7.61;83.97
61478;BME280;47345;52.334;10.392;2023-05-24T00:59:27;101401.48;;;7.59;83.94
61478;BME280;47345;52.334;10.392;2023-05-24T01:01:58;101398.48;;;7.59;84.03
61478;BME280;47345;52.334;10.392;2023-05-24T01:04:29;101398.43;;;7.56;84.18
61478;BME280;47345;52.334;10.392;2023-05-24T01:07:08;101398.77;;;7.52;84.34
61478;BME280;47345;52.334;10.392;2023-05-24T01:09:52;101395.02;;;7.50;84.36
61478;BME280;47345;52.334;10.392;2023-05-24T01:12:31;101391.11;;;7.48;84.47
61478;BME280;47345;52.334;10.392;2023-05-24T01:15:10;101392.55;;;7.46;84.59
61478;BME280;47345;52.334;10.392;2023-05-24T01:17:52;101390.81;;;7.46;84.69
61478;BME280;47345;52.334;10.392;2023-05-24T01:20:32;101385.84;;;7.45;84.87
61478;BME280;47345;52.334;10.392;2023-05-24T01:23:16;101385.12;;;7.45;84.99
61478;BME280;47345;52.334;10.392;2023-05-24T01:25:59;101384.38;;;7.45;85.16
61478;BME280;47345;52.334;10.392;2023-05-24T01:28:33;101384.04;;;7.46;85.41
61478;BME280;47345;52.334;10.392;2023-05-24T01:31:05;101384.58;;;7.49;85.64
61478;BME280;47345;52.334;10.392;2023-05-24T01:33:41;101388.21;;;7.54;85.47
61478;BME280;47345;52.334;10.392;2023-05-24T01:36:12;101383.08;;;7.58;85.85
61478;BME280;47345;52.334;10.392;2023-05-24T01:38:43;101388.24;;;7.64;86.04
61478;BME280;47345;52.334;10.392;2023-05-24T01:41:25;101382.86;;;7.70;85.94
61478;BME280;47345;52.334;10.392;2023-05-24T01:44:02;101378.39;;;7.78;86.21
61478;BME280;47345;52.334;10.392;2023-05-24T01:46:37;101378.06;;;7.84;85.99
61478;BME280;47345;52.334;10.392;2023-05-24T01:49:16;101377.62;;;7.89;85.91
61478;BME280;47345;52.334;10.392;2023-05-24T01:51:50;101375.05;;;7.96;85.98
61478;BME280;47345;52.334;10.392;2023-05-24T01:54:25;101374.11;;;8.00;85.54
61478;BME280;47345;52.334;10.392;2023-05-24T01:56:58;101379.00;;;8.03;85.36
61478;BME280;47345;52.334;10.392;2023-05-24T01:59:30;101372.63;;;8.03;85.37
61478;BME280;47345;52.334;10.392;2023-05-24T02:02:01;101369.80;;;8.04;85.37
61478;BME280;47345;52.334;10.392;2023-05-24T02:04:32;101371.19;;;8.06;85.52
61478;BME280;47345;52.334;10.392;2023-05-24T02:07:04;101367.95;;;8.09;85.54
61478;BME280;47345;52.334;10.392;2023-05-24T02:09:34;101360.79;;;8.11;85.47
61478;BME280;47345;52.334;10.392;2023-05-24T02:12:08;101360.52;;;8.12;85.34
61478;BME280;47345;52.334;10.392;2023-05-24T02:14:39;101354.17;;;8.14;85.24
61478;BME280;47345;52.334;10.392;2023-05-24T02:17:11;101353.70;;;8.13;85.03
61478;BME280;47345;52.334;10.392;2023-05-24T02:19:41;101350.36;;;8.12;85.06
61478;BME280;47345;52.334;10.392;2023-05-24T02:22:13;101353.83;;;8.12;85.08
61478;BME280;47345;52.334;10.392;2023-05-24T02:24:43;101348.39;;;8.10;84.99
61478;BME280;47345;52.334;10.392;2023-05-24T02:27:16;101348.94;;;8.10;85.13
61478;BME280;47345;52.334;10.392;2023-05-24T02:29:47;101343.69;;;8.10;85.14
61478;BME280;47345;52.334;10.392;2023-05-24T02:32:18;101344.23;;;8.10;85.02
61478;BME280;47345;52.334;10.392;2023-05-24T02:34:49;101345.12;;;8.10;85.12
61478;BME280;47345;52.334;10.392;2023-05-24T02:37:20;101340.16;;;8.09;85.21
61478;BME280;47345;52.334;10.392;2023-05-24T02:39:51;101340.02;;;8.07;85.12
61478;BME280;47345;52.334;10.392;2023-05-24T02:42:22;101335.54;;;8.05;85.04
61478;BME280;47345;52.334;10.392;2023-05-24T02:44:52;101333.23;;;8.01;85.27
61478;BME280;47345;52.334;10.392;2023-05-24T02:47:23;101339.75;;;7.98;85.02
61478;BME280;47345;52.334;10.392;2023-05-24T02:49:55;101334.73;;;7.93;85.29
61478;BME280;47345;52.334;10.392;2023-05-24T02:52:25;101335.70;;;7.91;85.43
61478;BME280;47345;52.334;10.392;2023-05-24T02:54:56;101338.77;;;7.86;85.30
61478;BME280;47345;52.334;10.392;2023-05-24T02:57:28;101335.98;;;7.81;85.51
61478;BME280;47345;52.334;10.392;2023-05-24T03:00:02;101337.07;;;7.77;85.61
61478;BME280;47345;52.334;10.392;2023-05-24T03:02:34;101339.09;;;7.74;85.61
61478;BME280;47345;52.334;10.392;2023-05-24T03:05:08;101341.81;;;7.70;85.93
61478;BME280;47345;52.334;10.392;2023-05-24T03:07:39;101338.98;;;7.66;86.02
61478;BME280;47345;52.334;10.392;2023-05-24T03:10:11;101343.86;;;7.63;86.16
61478;BME280;47345;52.334;10.392;2023-05-24T03:12:44;101346.45;;;7.60;86.24
61478;BME280;47345;52.334;10.392;2023-05-24T03:15:15;101341.32;;;7.57;86.37
61478;BME280;47345;52.334;10.392;2023-05-24T03:17:46;101339.08;;;7.52;86.49
61478;BME280;47345;52.334;10.392;2023-05-24T03:20:17;101339.84;;;7.49;86.64
61478;BME280;47345;52.334;10.392;2023-05-24T03:22:49;101333.79;;;7.46;86.86
61478;BME280;47345;52.334;10.392;2023-05-24T03:25:20;101335.58;;;7.45;87.17
61478;BME280;47345;52.334;10.392;2023-05-24T03:27:51;101334.29;;;7.43;87.50
61478;BME280;47345;52.334;10.392;2023-05-24T03:30:23;101339.95;;;7.41;87.48
61478;BME280;47345;52.334;10.392;2023-05-24T03:32:54;101340.09;;;7.38;87.69
61478;BME280;47345;52.334;10.392;2023-05-24T03:35:25;101342.34;;;7.36;87.89
61478;BME280;47345;52.334;10.392;2023-05-24T03:37:56;101342.13;;;7.35;88.00
61478;BME280;47345;52.334;10.392;2023-05-24T03:40:26;101339.25;;;7.35;88.27
61478;BME280;47345;52.334;10.392;2023-05-24T03:43:00;101341.39;;;7.33;88.26
61478;BME280;47345;52.334;10.392;2023-05-24T03:45:33;101344.61;;;7.33;88.44
61478;BME280;47345;52.334;10.392;2023-05-24T03:48:08;101336.52;;;7.30;88.77
61478;BME280;47345;52.334;10.392;2023-05-24T03:50:39;101341.63;;;7.36;88.77
61478;BME280;47345;52.334;10.392;2023-05-24T03:53:11;101342.35;;;7.36;88.88
61478;BME280;47345;52.334;10.392;2023-05-24T03:55:42;101343.15;;;7.37;89.06
61478;BME280;47345;52.334;10.392;2023-05-24T03:58:13;101344.00;;;7.37;89.14
61478;BME280;47345;52.334;10.392;2023-05-24T04:00:44;101345.54;;;7.38;89.27
61478;BME280;47345;52.334;10.392;2023-05-24T04:03:15;101346.66;;;7.40;89.45
61478;BME280;47345;52.334;10.392;2023-05-24T04:05:48;101348.44;;;7.43;89.58
61478;BME280;47345;52.334;10.392;2023-05-24T04:08:19;101352.15;;;7.46;89.65
61478;BME280;47345;52.334;10.392;2023-05-24T04:10:49;101354.64;;;7.50;89.62
61478;BME280;47345;52.334;10.392;2023-05-24T04:13:20;101355.41;;;7.54;89.63
61478;BME280;47345;52.334;10.392;2023-05-24T04:15:51;101352.66;;;7.58;89.49
61478;BME280;47345;52.334;10.392;2023-05-24T04:18:22;101349.30;;;7.63;89.64
61478;BME280;47345;52.334;10.392;2023-05-24T04:20:54;101346.58;;;7.68;89.39
61478;BME280;47345;52.334;10.392;2023-05-24T04:23:24;101348.00;;;7.75;89.57
61478;BME280;47345;52.334;10.392;2023-05-24T04:25:55;101348.80;;;7.81;89.49
61478;BME280;47345;52.334;10.392;2023-05-24T04:28:26;101350.34;;;7.88;89.34
61478;BME280;47345;52.334;10.392;2023-05-24T04:30:57;101347.79;;;7.93;89.55
61478;BME280;47345;52.334;10.392;2023-05-24T04:33:28;101347.61;;;7.98;89.41
61478;BME280;47345;52.334;10.392;2023-05-24T04:35:59;101347.20;;;8.02;89.27
61478;BME280;47345;52.334;10.392;2023-05-24T04:38:30;101349.08;;;8.06;89.13
61478;BME280;47345;52.334;10.392;2023-05-24T04:41:03;101351.88;;;8.10;89.33
61478;BME280;47345;52.334;10.392;2023-05-24T04:43:34;101359.06;;;8.15;89.19
61478;BME280;47345;52.334;10.392;2023-05-24T04:46:05;101359.91;;;8.19;88.89
61478;BME280;47345;52.334;10.392;2023-05-24T04:48:38;101362.73;;;8.25;89.03
61478;BME280;47345;52.334;10.392;2023-05-24T04:51:09;101361.39;;;8.30;88.96
61478;BME280;47345;52.334;10.392;2023-05-24T04:53:41;101364.08;;;8.35;89.02
61478;BME280;47345;52.334;10.392;2023-05-24T04:56:12;101364.02;;;8.39;88.92
61478;BME280;47345;52.334;10.392;2023-05-24T04:58:45;101368.88;;;8.43;88.90
61478;BME280;47345;52.334;10.392;2023-05-24T05:01:16;101366.79;;;8.45;88.91
61478;BME280;47345;52.334;10.392;2023-05-24T05:03:48;101368.65;;;8.48;88.89
61478;BME280;47345;52.334;10.392;2023-05-24T05:06:19;101372.39;;;8.52;89.03
61478;BME280;47345;52.334;10.392;2023-05-24T05:08:50;101370.55;;;8.55;88.97
61478;BME280;47345;52.334;10.392;2023-05-24T05:11:21;101370.09;;;8.62;88.96
61478;BME280;47345;52.334;10.392;2023-05-24T05:13:52;101367.70;;;8.71;89.09
61478;BME280;47345;52.334;10.392;2023-05-24T05:16:23;101365.05;;;8.79;88.81
61478;BME280;47345;52.334;10.392;2023-05-24T05:18:54;101367.95;;;8.87;88.60
61478;BME280;47345;52.334;10.392;2023-05-24T05:21:25;101370.76;;;8.94;88.50
61478;BME280;47345;52.334;10.392;2023-05-24T05:23:55;101372.53;;;8.99;88.15
61478;BME280;47345;52.334;10.392;2023-05-24T05:26:26;101369.14;;;9.05;88.19
61478;BME280;47345;52.334;10.392;2023-05-24T05:28:57;101376.88;;;9.09;87.85
61478;BME280;47345;52.334;10.392;2023-05-24T05:31:28;101381.40;;;9.12;87.68
61478;BME280;47345;52.334;10.392;2023-05-24T05:33:59;101383.17;;;9.15;87.38
61478;BME280;47345;52.334;10.392;2023-05-24T05:36:30;101385.08;;;9.18;87.23
61478;BME280;47345;52.334;10.392;2023-05-24T05:39:01;101389.39;;;9.22;87.25
61478;BME280;47345;52.334;10.392;2023-05-24T05:41:32;101393.58;;;9.26;87.31
61478;BME280;47345;52.334;10.392;2023-05-24T05:44:05;101397.71;;;9.31;87.33
61478;BME280;47345;52.334;10.392;2023-05-24T05:46:36;101398.48;;;9.36;87.37
61478;BME280;47345;52.334;10.392;2023-05-24T05:49:07;101398.11;;;9.42;87.13
61478;BME280;47345;52.334;10.392;2023-05-24T05:51:39;101395.46;;;9.47;86.97
61478;BME280;47345;52.334;10.392;2023-05-24T05:54:10;101393.48;;;9.55;86.93
61478;BME280;47345;52.334;10.392;2023-05-24T05:56:44;101396.19;;;9.64;86.90
61478;BME280;47345;52.334;10.392;2023-05-24T05:59:16;101388.95;;;9.73;86.28
61478;BME280;47345;52.334;10.392;2023-05-24T06:01:48;101386.80;;;9.83;86.18
61478;BME280;47345;52.334;10.392;2023-05-24T06:04:19;101385.27;;;9.94;85.84
61478;BME280;47345;52.334;10.392;2023-05-24T06:06:50;101387.28;;;10.05;85.69
61478;BME280;47345;52.334;10.392;2023-05-24T06:09:21;101385.21;;;10.17;85.59
61478;BME280;47345;52.334;10.392;2023-05-24T06:11:51;101383.48;;;10.29;84.86
61478;BME280;47345;52.334;10.392;2023-05-24T06:14:23;101384.64;;;10.39;84.57
61478;BME280;47345;52.334;10.392;2023-05-24T06:16:54;101390.21;;;10.48;84.81
61478;BME280;47345;52.334;10.392;2023-05-24T06:19:28;101391.36;;;10.60;85.02
61478;BME280;47345;52.334;10.392;2023-05-24T06:21:59;101397.88;;;10.70;84.90
61478;BME280;47345;52.334;10.392;2023-05-24T06:24:30;101397.67;;;10.78;83.71
61478;BME280;47345;52.334;10.392;2023-05-24T06:27:03;101396.42;;;10.87;83.25
61478;BME280;47345;52.334;10.392;2023-05-24T06:29:34;101391.02;;;10.96;83.30
61478;BME280;47345;52.334;10.392;2023-05-24T06:32:06;101392.77;;;11.06;82.91
61478;BME280;47345;52.334;10.392;2023-05-24T06:34:37;101395.98;;;11.13;82.88
61478;BME280;47345;52.334;10.392;2023-05-24T06:37:07;101394.92;;;11.22;82.60
61478;BME280;47345;52.334;10.392;2023-05-24T06:39:38;101398.20;;;11.29;81.81
61478;BME280;47345;52.334;10.392;2023-05-24T06:42:09;101397.39;;;11.36;81.64
61478;BME280;47345;52.334;10.392;2023-05-24T06:44:40;101395.46;;;11.42;81.86
61478;BME280;47345;52.334;10.392;2023-05-24T06:47:11;101406.16;;;11.50;81.71
61478;BME280;47345;52.334;10.392;2023-05-24T06:49:42;101404.88;;;11.59;80.98
61478;BME280;47345;52.334;10.392;2023-05-24T06:52:13;101408.80;;;11.69;80.08
61478;BME280;47345;52.334;10.392;2023-05-24T06:54:44;101412.74;;;11.77;81.22
61478;BME280;47345;52.334;10.392;2023-05-24T06:57:15;101418.42;;;11.87;81.50
61478;BME280;47345;52.334;10.392;2023-05-24T06:59:46;101424.46;;;11.93;80.62
61478;BME280;47345;52.334;10.392;2023-05-24T07:02:17;101424.13;;;11.95;79.33
61478;BME280;47345;52.334;10.392;2023-05-24T07:04:52;101428.29;;;11.93;78.29
61478;BME280;47345;52.334;10.392;2023-05-24T07:07:24;101425.52;;;11.90;79.24
61478;BME280;47345;52.334;10.392;2023-05-24T07:09:55;101428.75;;;11.92;78.78
61478;BME280;47345;52.334;10.392;2023-05-24T07:12:26;101427.95;;;11.91;79.07
61478;BME280;47345;52.334;10.392;2023-05-24T07:14:57;101428.55;;;11.92;78.45
61478;BME280;47345;52.334;10.392;2023-05-24T07:17:28;101430.57;;;11.93;77.86
61478;BME280;47345;52.334;10.392;2023-05-24T07:19:59;101435.09;;;11.94;77.28
61478;BME280;47345;52.334;10.392;2023-05-24T07:22:31;101436.02;;;11.94;77.96
61478;BME280;47345;52.334;10.392;2023-05-24T07:25:01;101437.64;;;11.95;77.67
61478;BME280;47345;52.334;10.392;2023-05-24T07:27:33;101442.80;;;11.98;78.06
61478;BME280;47345;52.334;10.392;2023-05-24T07:30:06;101443.14;;;12.01;77.18
61478;BME280;47345;52.334;10.392;2023-05-24T07:32:56;101441.84;;;12.05;76.89
61478;BME280;47345;52.334;10.392;2023-05-24T07:35:27;101440.29;;;12.08;76.18
61478;BME280;47345;52.334;10.392;2023-05-24T07:38:00;101443.36;;;12.06;75.85
61478;BME280;47345;52.334;10.392;2023-05-24T07:40:31;101440.65;;;12.06;76.68
61478;BME280;47345;52.334;10.392;2023-05-24T07:43:02;101435.38;;;12.09;77.02
61478;BME280;47345;52.334;10.392;2023-05-24T07:45:33;101439.64;;;12.13;77.84
61478;BME280;47345;52.334;10.392;2023-05-24T07:48:04;101442.13;;;12.17;78.10
61478;BME280;47345;52.334;10.392;2023-05-24T07:50:35;101434.50;;;12.27;78.27
61478;BME280;47345;52.334;10.392;2023-05-24T07:53:06;101433.17;;;12.40;78.65
61478;BME280;47345;52.334;10.392;2023-05-24T07:55:37;101439.75;;;12.53;78.86
61478;BME280;47345;52.334;10.392;2023-05-24T07:58:08;101438.94;;;12.67;77.17
61478;BME280;47345;52.334;10.392;2023-05-24T08:00:40;101438.46;;;12.77;76.83
61478;BME280;47345;52.334;10.392;2023-05-24T08:03:11;101440.21;;;12.81;76.74
61478;BME280;47345;52.334;10.392;2023-05-24T08:05:44;101441.19;;;12.82;75.68
61478;BME280;47345;52.334;10.392;2023-05-24T08:08:16;101437.92;;;12.82;74.59
61478;BME280;47345;52.334;10.392;2023-05-24T08:10:46;101439.83;;;12.80;74.88
61478;BME280;47345;52.334;10.392;2023-05-24T08:13:19;101442.45;;;12.81;75.42
61478;BME280;47345;52.334;10.392;2023-05-24T08:15:50;101443.84;;;12.82;75.85
61478;BME280;47345;52.334;10.392;2023-05-24T08:18:21;101441.83;;;12.85;75.41
61478;BME280;47345;52.334;10.392;2023-05-24T08:20:52;101443.06;;;12.86;74.21
61478;BME280;47345;52.334;10.392;2023-05-24T08:23:23;101445.13;;;12.85;74.71
61478;BME280;47345;52.334;10.392;2023-05-24T08:25:55;101455.14;;;12.84;74.46
61478;BME280;47345;52.334;10.392;2023-05-24T08:28:27;101454.19;;;12.81;74.72
61478;BME280;47345;52.334;10.392;2023-05-24T08:30:58;101451.25;;;12.74;74.43
61478;BME280;47345;52.334;10.392;2023-05-24T08:33:29;101455.77;;;12.64;74.08
61478;BME280;47345;52.334;10.392;2023-05-24T08:36:01;101457.94;;;12.58;74.28
61478;BME280;47345;52.334;10.392;2023-05-24T08:38:31;101461.38;;;12.53;75.21
61478;BME280;47345;52.334;10.392;2023-05-24T08:41:04;101464.49;;;12.53;75.04
61478;BME280;47345;52.334;10.392;2023-05-24T08:43:35;101458.09;;;12.55;75.27
61478;BME280;47345;52.334;10.392;2023-05-24T08:46:07;101461.42;;;12.62;75.40
61478;BME280;47345;52.334;10.392;2023-05-24T08:48:45;101465.89;;;12.71;75.92
61478;BME280;47345;52.334;10.392;2023-05-24T08:51:16;101469.89;;;12.80;75.62
61478;BME280;47345;52.334;10.392;2023-05-24T08:53:47;101471.83;;;12.87;75.79
61478;BME280;47345;52.334;10.392;2023-05-24T08:56:20;101471.46;;;12.91;75.42
61478;BME280;47345;52.334;10.392;2023-05-24T08:58:52;101478.36;;;12.96;75.06
61478;BME280;47345;52.334;10.392;2023-05-24T09:01:24;101478.45;;;12.96;75.21
61478;BME280;47345;52.334;10.392;2023-05-24T09:04:00;101480.39;;;12.91;75.01
61478;BME280;47345;52.334;10.392;2023-05-24T09:06:32;101484.70;;;12.82;75.58
61478;BME280;47345;52.334;10.392;2023-05-24T09:09:07;101489.23;;;12.70;76.48
61478;BME280;47345;52.334;10.392;2023-05-24T09:11:41;101489.77;;;12.58;76.58
61478;BME280;47345;52.334;10.392;2023-05-24T09:14:13;101495.27;;;12.48;76.98
61478;BME280;47345;52.334;10.392;2023-05-24T09:16:45;101495.86;;;12.39;78.72
61478;BME280;47345;52.334;10.392;2023-05-24T09:19:16;101502.34;;;12.31;80.10
61478;BME280;47345;52.334;10.392;2023-05-24T09:21:49;101504.02;;;12.25;80.48
61478;BME280;47345;52.334;10.392;2023-05-24T09:24:23;101499.70;;;12.22;80.72
61478;BME280;47345;52.334;10.392;2023-05-24T09:26:54;101504.05;;;12.22;80.58
61478;BME280;47345;52.334;10.392;2023-05-24T09:29:26;101506.30;;;12.24;80.85
61478;BME280;47345;52.334;10.392;2023-05-24T09:31:57;101506.80;;;12.31;80.73
61478;BME280;47345;52.334;10.392;2023-05-24T09:34:28;101504.52;;;12.38;80.50
61478;BME280;47345;52.334;10.392;2023-05-24T09:36:59;101499.41;;;12.47;80.73
61478;BME280;47345;52.334;10.392;2023-05-24T09:39:31;101503.94;;;12.54;80.67
61478;BME280;47345;52.334;10.392;2023-05-24T09:42:03;101509.13;;;12.61;80.78
61478;BME280;47345;52.334;10.392;2023-05-24T09:44:34;101504.36;;;12.69;80.29
61478;BME280;47345;52.334;10.392;2023-05-24T09:47:06;101501.10;;;12.76;79.48
61478;BME280;47345;52.334;10.392;2023-05-24T09:49:38;101500.42;;;12.87;80.39
61478;BME280;47345;52.334;10.392;2023-05-24T09:52:13;101498.44;;;12.96;79.80
61478;BME280;47345;52.334;10.392;2023-05-24T09:54:45;101496.67;;;13.07;79.43
61478;BME280;47345;52.334;10.392;2023-05-24T09:57:17;101501.23;;;13.18;78.60
61478;BME280;47345;52.334;10.392;2023-05-24T09:59:50;101500.58;;;13.24;78.28
61478;BME280;47345;52.334;10.392;2023-05-24T10:02:22;101499.02;;;13.29;77.68
61478;BME280;47345;52.334;10.392;2023-05-24T10:04:59;101503.97;;;13.33;78.31
61478;BME280;47345;52.334;10.392;2023-05-24T10:07:30;101503.46;;;13.36;78.09
61478;BME280;47345;52.334;10.392;2023-05-24T10:10:03;101502.64;;;13.39;77.87
61478;BME280;47345;52.334;10.392;2023-05-24T10:12:36;101502.00;;;13.45;77.85
61478;BME280;47345;52.334;10.392;2023-05-24T10:15:12;101498.30;;;13.55;78.03
61478;BME280;47345;52.334;10.392;2023-05-24T10:17:43;101502.34;;;13.62;77.46
61478;BME280;47345;52.334;10.392;2023-05-24T10:20:14;101499.77;;;13.69;77.22
61478;BME280;47345;52.334;10.392;2023-05-24T10:22:46;101502.73;;;13.74;76.79
61478;BME280;47345;52.334;10.392;2023-05-24T10:25:22;101501.27;;;13.77;76.38
61478;BME280;47345;52.334;10.392;2023-05-24T10:27:56;101502.14;;;13.81;76.65
61478;BME280;47345;52.334;10.392;2023-05-24T10:30:32;101504.85;;;13.84;76.24
61478;BME280;47345;52.334;10.392;2023-05-24T10:33:06;101510.52;;;13.84;76.51
61478;BME280;47345;52.334;10.392;2023-05-24T10:35:39;101509.46;;;13.85;76.11
61478;BME280;47345;52.334;10.392;2023-05-24T10:38:11;101507.27;;;13.86;76.00
61478;BME280;47345;52.334;10.392;2023-05-24T10:40:43;101508.79;;;13.86;76.20
61478;BME280;47345;52.334;10.392;2023-05-24T10:43:14;101510.05;;;13.79;75.61
61478;BME280;47345;52.334;10.392;2023-05-24T10:45:48;101510.48;;;13.78;76.75
61478;BME280;47345;52.334;10.392;2023-05-24T10:48:37;101511.96;;;13.83;76.92
61478;BME280;47345;52.334;10.392;2023-05-24T10:51:32;101513.05;;;13.87;76.44
61478;BME280;47345;52.334;10.392;2023-05-24T10:54:18;101513.48;;;13.88;76.33
61478;BME280;47345;52.334;10.392;2023-05-24T10:56:50;101514.16;;;13.86;75.82
61478;BME280;47345;52.334;10.392;2023-05-24T10:59:29;101517.75;;;13.81;74.87
61478;BME280;47345;52.334;10.392;2023-05-24T11:02:05;101519.36;;;13.74;74.88
61478;BME280;47345;52.334;10.392;2023-05-24T11:04:40;101521.42;;;13.69;75.39
61478;BME280;47345;52.334;10.392;2023-05-24T11:07:14;101521.29;;;13.63;75.17
61478;BME280;47345;52.334;10.392;2023-05-24T11:09:47;101528.77;;;13.62;75.45
61478;BME280;47345;52.334;10.392;2023-05-24T11:12:30;101529.50;;;13.66;76.31
61478;BME280;47345;52.334;10.392;2023-05-24T11:15:09;101530.73;;;13.73;76.47
61478;BME280;47345;52.334;10.392;2023-05-24T11:20:40;101533.02;;;13.86;75.38
61478;BME280;47345;52.334;10.392;2023-05-24T11:23:14;101529.23;;;13.92;75.18
61478;BME280;47345;52.334;10.392;2023-05-24T11:25:46;101524.70;;;14.00;74.89
61478;BME280;47345;52.334;10.392;2023-05-24T11:28:18;101529.66;;;14.07;74.49
61478;BME280;47345;52.334;10.392;2023-05-24T11:30:50;101531.05;;;14.09;74.75
61478;BME280;47345;52.334;10.392;2023-05-24T11:33:21;101531.14;;;14.08;74.80
61478;BME280;47345;52.334;10.392;2023-05-24T11:35:53;101532.84;;;14.05;74.96
61478;BME280;47345;52.334;10.392;2023-05-24T11:38:25;101533.48;;;14.00;75.00
61478;BME280;47345;52.334;10.392;2023-05-24T11:40:58;101531.77;;;13.93;75.16
61478;BME280;47345;52.334;10.392;2023-05-24T11:43:30;101530.23;;;13.82;75.51
61478;BME280;47345;52.334;10.392;2023-05-24T11:46:01;101536.41;;;13.73;76.12
61478;BME280;47345;52.334;10.392;2023-05-24T11:48:32;101533.81;;;13.65;76.55
61478;BME280;47345;52.334;10.392;2023-05-24T11:51:05;101538.20;;;13.60;76.98
61478;BME280;47345;52.334;10.392;2023-05-24T11:53:36;101534.80;;;13.59;77.68
61478;BME280;47345;52.334;10.392;2023-05-24T11:56:06;101537.27;;;13.61;78.02
61478;BME280;47345;52.334;10.392;2023-05-24T11:58:45;101533.85;;;13.65;78.03
61478;BME280;47345;52.334;10.392;2023-05-24T12:01:27;101535.68;;;13.72;77.88
61478;BME280;47345;52.334;10.392;2023-05-24T12:03:58;101533.29;;;13.82;77.85
61478;BME280;47345;52.334;10.392;2023-05-24T12:06:38;101533.64;;;13.95;76.85
61478;BME280;47345;52.334;10.392;2023-05-24T12:09:11;101534.23;;;14.07;76.80
61478;BME280;47345;52.334;10.392;2023-05-24T12:11:45;101528.02;;;14.15;76.79
61478;BME280;47345;52.334;10.392;2023-05-24T12:14:17;101525.09;;;14.19;75.89
61478;BME280;47345;52.334;10.392;2023-05-24T12:16:48;101524.50;;;14.18;76.03
61478;BME280;47345;52.334;10.392;2023-05-24T12:19:19;101527.42;;;14.13;76.19
61478;BME280;47345;52.334;10.392;2023-05-24T12:21:57;101524.96;;;14.08;76.11
61478;BME280;47345;52.334;10.392;2023-05-24T12:24:28;101522.96;;;14.05;76.18
61478;BME280;47345;52.334;10.392;2023-05-24T12:27:02;101521.11;;;14.05;76.47
61478;BME280;47345;52.334;10.392;2023-05-24T12:29:36;101523.78;;;14.09;76.93
61478;BME280;47345;52.334;10.392;2023-05-24T12:32:10;101520.36;;;14.16;77.01
61478;BME280;47345;52.334;10.392;2023-05-24T12:34:44;101522.48;;;14.22;76.38
61478;BME280;47345;52.334;10.392;2023-05-24T12:37:15;101523.04;;;14.31;76.68
61478;BME280;47345;52.334;10.392;2023-05-24T12:39:46;101522.55;;;14.45;77.13
61478;BME280;47345;52.334;10.392;2023-05-24T12:42:20;101522.25;;;14.58;76.80
61478;BME280;47345;52.334;10.392;2023-05-24T12:44:52;101525.11;;;14.65;76.32
61478;BME280;47345;52.334;10.392;2023-05-24T12:47:23;101523.72;;;14.73;76.43
61478;BME280;47345;52.334;10.392;2023-05-24T12:49:55;101523.36;;;14.81;76.39
61478;BME280;47345;52.334;10.392;2023-05-24T12:52:25;101523.40;;;14.89;76.02
61478;BME280;47345;52.334;10.392;2023-05-24T12:54:56;101527.08;;;14.96;75.09
61478;BME280;47345;52.334;10.392;2023-05-24T12:57:27;101530.03;;;14.97;74.43
61478;BME280;47345;52.334;10.392;2023-05-24T13:00:01;101528.90;;;14.95;74.48
61478;BME280;47345;52.334;10.392;2023-05-24T13:02:34;101531.23;;;14.93;74.82
61478;BME280;47345;52.334;10.392;2023-05-24T13:05:09;101530.10;;;14.91;75.26
61478;BME280;47345;52.334;10.392;2023-05-24T13:07:41;101533.58;;;14.90;74.64
61478;BME280;47345;52.334;10.392;2023-05-24T13:10:12;101529.13;;;14.89;74.65
61478;BME280;47345;52.334;10.392;2023-05-24T13:12:43;101523.35;;;14.92;74.62
61478;BME280;47345;52.334;10.392;2023-05-24T13:15:14;101521.67;;;14.99;74.51